Latest Coastal Weather Observations for Double Island Point

IDQ60701

Issued at 6:15 pm EST Thursday 5 March 2015 (issued every 10 minutes, with the page automatically refreshed every 10 minutes)

About coastal observations | Map of coastal stations | Coastal observations for QLD | Marine services | Other Formats
Station Details ID: 040068 Name: DOUBLE ISLAND POINT LIGHTHOUSE Lat: -25.93 Lon: 153.19 Height: 95.64 m
Data from the previous 72 hours. | See also: Recent months at Double Island Point
Date/Time
EST
Temp

°C
Wind Pressure Rain
since 9am
mm
Weather Cloud Vis
km
Sea
Height
m
Swell
Dir
 
Speed
knots
Gust
knots
hPa Trend Height
m
Period
s
Dir
05/06:00pm 27.9 NNW 7 12 1003.8 - 0.0 - - - - - - -
05/05:30pm 29.0 NNW 7 11 1003.8 - 0.0 - - - - - - -
05/05:00pm 29.8 N 5 7 1003.8 - 0.0 - - - - - - -
05/04:30pm 30.3 NNW 4 7 1003.7 - 0.0 - - - - - - -
05/04:00pm 31.5 N 4 7 1003.9 - 0.0 - - - - - - -
05/03:30pm 31.8 N 4 6 1004.1 - 0.0 - - - - - - -
05/03:00pm 31.6 N 4 6 1004.3 - 0.0 - - - - - - -
05/02:30pm 30.9 NNW 7 13 1004.5 - 0.0 - - - - - - -
05/02:00pm 30.9 N 6 12 1005.1 - 0.0 - - - - - - -
05/01:30pm 31.4 N 7 11 1005.7 - 0.0 - - - - - - -
05/01:00pm 31.6 N 5 10 1006.4 - 0.0 - - - - - - -
05/12:30pm 33.4 NNW 6 8 1007.1 - 0.0 - - - - - - -
05/12:00pm 32.4 NNW 11 15 1007.4 - 0.0 - - - - - - -
05/11:30am 31.4 NNW 15 18 1007.7 - 0.0 - - - - - - -
05/11:00am 30.5 NNW 16 19 1008.2 - 0.0 - - - - - - -
05/10:30am 29.3 NNW 17 20 1008.6 - 0.0 - - - - - - -
05/10:00am 28.4 NNW 16 20 1009.0 - 0.0 - - - - - - -
05/09:30am 27.9 NNW 16 19 1009.2 - 0.0 - - - - - - -
05/09:00am 26.9 NW 13 17 1009.4 - 0.0 - - - - - - -
05/08:30am 26.1 NW 12 15 1009.5 - 0.0 - - - - - - -
05/08:00am 25.0 NW 13 17 1009.5 - 0.0 - - - - - - -
05/07:30am 25.0 NW 10 14 1009.5 - 0.0 - - - - - - -
05/07:00am 24.2 NW 10 12 1009.5 - 0.0 - - - - - - -
05/06:30am 23.9 NW 10 13 1009.4 - 0.0 - - - - - - -
05/06:00am 23.7 NNW 12 15 1009.1 - 0.0 - - - - - - -
05/05:30am 23.7 NW 11 13 1008.9 - 0.0 - - - - - - -
05/05:00am 23.8 NW 12 14 1008.7 - 0.0 - - - - - - -
05/04:30am 23.8 NNW 9 11 1008.6 - 0.0 - - - - - - -
05/04:00am 23.8 NNW 11 13 1008.5 - 0.0 - - - - - - -
05/03:30am 23.5 NNW 11 13 1008.7 - 0.0 - - - - - - -
05/03:00am 23.5 NW 11 13 1008.9 - 0.0 - - - - - - -
05/02:30am 23.8 NW 9 10 1009.3 - 0.0 - - - - - - -
05/02:00am 23.9 NW 9 11 1009.7 - 0.0 - - - - - - -
05/01:30am 24.3 NW 8 11 1010.2 - 0.0 - - - - - - -
05/01:00am 24.3 N 3 6 1010.4 - 0.0 - - - - - - -
05/12:30am 24.5 N 3 6 1010.9 - 0.0 - - - - - - -
05/12:00am 24.5 N 3 7 1011.4 - 0.0 - - - - - - -
 
Date/Time
EST
Temp

°C
Wind Pressure Rain
since 9am
mm
Weather Cloud Vis
km
Sea
Height
m
Swell
Dir
 
Speed
knots
Gust
knots
hPa Trend Height
m
Period
s
Dir
04/11:30pm 24.4 N 4 7 1011.7 - 0.0 - - - - - - -
04/11:00pm 24.3 N 4 9 1011.9 - 0.0 - - - - - - -
04/10:30pm 24.4 N 7 12 1012.0 - 0.0 - - - - - - -
04/10:00pm 24.3 N 9 12 1012.2 - 0.0 - - - - - - -
04/09:30pm 24.2 NNE 10 13 1012.2 - 0.0 - - - - - - -
04/09:00pm 24.3 NNE 8 11 1012.3 - 0.0 - - - - - - -
04/08:30pm 24.5 NNE 8 12 1012.4 - 0.0 - - - - - - -
04/08:00pm 24.5 NE 8 12 1012.3 - 0.0 - - - - - - -
04/07:30pm 24.7 NE 10 12 1011.7 - 0.0 - - - - - - -
04/07:00pm 24.8 NE 9 12 1011.5 - 0.0 - - - - - - -
04/06:30pm 24.7 NE 9 12 1011.3 - 0.0 - - - - - - -
04/06:00pm 25.2 ENE 10 13 1011.2 - 0.0 - - - - - - -
04/05:30pm 25.7 ENE 9 11 1011.2 - 0.0 - - - - - - -
04/05:00pm 26.1 ENE 9 11 1011.1 - 0.0 - - - - - - -
04/04:30pm 26.6 ENE 9 12 1011.1 - 0.0 - - - - - - -
04/04:00pm 26.8 ENE 9 11 1010.9 - 0.0 - - - - - - -
04/03:30pm 27.5 E 9 11 1011.1 - 0.0 - - - - - - -
04/03:00pm 27.9 E 8 10 1011.4 - 0.0 - - - - - - -
04/02:30pm 28.2 E 9 11 1011.5 - 0.0 - - - - - - -
04/02:00pm 28.1 ESE 9 11 1011.8 - 0.0 - - - - - - -
04/01:30pm 27.7 SE 10 13 1012.3 - 0.0 - - - - - - -
04/01:00pm 27.3 SE 10 13 1012.7 - 0.0 - - - - - - -
04/12:30pm 27.9 SE 9 11 1013.0 - 0.0 - - - - - - -
04/12:00pm 27.6 SE 9 11 1013.3 - 0.0 - - - - - - -
04/11:30am 27.8 SE 9 11 1013.6 - 0.0 - - - - - - -
04/11:00am 26.8 SE 8 10 1014.0 - 0.0 - - - - - - -
04/10:30am 27.4 SE 9 11 1014.2 - 0.0 - - - - - - -
04/10:00am 28.5 ESE 8 10 1014.4 - 0.0 - - - - - - -
04/09:30am 28.0 ESE 8 10 1014.4 - 0.0 - - - - - - -
04/09:00am 27.5 E 8 10 1014.1 - 0.0 - - - - - - -
04/08:30am 26.9 E 8 10 1014.0 - 0.0 - - - - - - -
04/08:00am 26.8 ESE 8 10 1013.7 - 0.0 - - - - - - -
04/07:30am 26.4 E 9 11 1013.4 - 0.0 - - - - - - -
04/07:00am 25.5 E 9 11 1013.1 - 0.0 - - - - - - -
04/06:30am 24.8 E 9 11 1012.8 - 0.0 - - - - - - -
04/06:00am 24.0 ESE 9 11 1012.8 - 0.0 - - - - - - -
04/05:30am 23.6 ESE 9 11 1012.6 - 0.0 - - - - - - -
04/05:00am 23.6 SE 10 12 1012.6 - 0.0 - - - - - - -
04/04:30am 23.5 SE 10 11 1012.4 - 0.0 - - - - - - -
04/04:00am 23.5 SE 10 13 1012.3 - 0.0 - - - - - - -
04/03:30am 23.8 SE 11 13 1012.4 - 0.0 - - - - - - -
04/03:00am 24.0 SE 13 15 1012.5 - 0.0 - - - - - - -
04/02:30am 23.9 SE 13 15 1012.8 - 0.0 - - - - - - -
04/02:00am 24.0 ESE 13 16 1013.0 - 0.0 - - - - - - -
04/01:30am 24.1 ESE 11 14 1013.3 - 0.0 - - - - - - -
04/01:00am 24.0 ESE 13 16 1013.5 - 0.0 - - - - - - -
04/12:30am 24.3 ESE 15 18 1013.8 - 0.0 - - - - - - -
04/12:00am 24.2 ESE 14 17 1014.2 - 0.0 - - - - - - -
 
Date/Time
EST
Temp

°C
Wind Pressure Rain
since 9am
mm
Weather Cloud Vis
km
Sea
Height
m
Swell
Dir
 
Speed
knots
Gust
knots
hPa Trend Height
m
Period
s
Dir
03/11:30pm 24.2 ESE 13 16 1014.5 - 0.0 - - - - - - -
03/11:00pm 24.3 ESE 15 17 1014.5 - 0.0 - - - - - - -
03/10:30pm 24.3 ESE 15 18 1014.6 - 0.0 - - - - - - -
03/10:00pm 24.3 ESE 16 18 1014.6 - 0.0 - - - - - - -
03/09:30pm 24.3 ESE 16 18 1014.7 - 0.0 - - - - - - -
03/09:00pm 24.4 ESE 17 19 1014.5 - 0.0 - - - - - - -
03/08:30pm 24.4 ESE 17 20 1014.2 - 0.0 - - - - - - -
03/08:00pm 24.5 ESE 16 19 1013.8 - 0.0 - - - - - - -
03/07:30pm 24.6 ESE 17 20 1013.6 - 0.0 - - - - - - -
03/07:00pm 24.6 SE 19 21 1013.4 - 0.0 - - - - - - -
03/06:30pm 24.7 SE 18 21 1013.2 - 0.0 - - - - - - -
03/06:00pm 24.9 SE 18 20 1013.0 - 0.0 - - - - - - -
03/05:30pm 25.1 SE 18 21 1012.9 - 0.0 - - - - - - -
03/05:00pm 25.3 SE 19 21 1012.7 - 0.0 - - - - - - -
03/04:30pm 25.1 SE 19 22 1012.6 - 0.0 - - - - - - -
03/04:00pm 25.7 SE 19 22 1012.4 - 0.0 - - - - - - -
03/03:30pm 26.5 SE 17 21 1012.3 - 0.0 - - - - - - -
03/03:00pm 26.4 SE 19 22 1012.4 - 0.0 - - - - - - -
03/02:30pm 25.9 SE 19 22 1012.6 - 0.0 - - - - - - -
03/02:00pm 25.8 SE 19 22 1012.7 - 0.0 - - - - - - -
03/01:30pm 27.1 SE 18 21 1013.1 - 0.0 - - - - - - -
03/01:00pm 25.9 SE 20 22 1013.4 - 0.0 - - - - - - -
03/12:30pm 27.6 SE 20 23 1013.6 - 0.0 - - - - - - -
03/12:00pm 27.2 SE 19 22 1014.1 - 0.0 - - - - - - -
03/11:30am 27.3 SE 20 22 1014.4 - 0.0 - - - - - - -
03/11:00am 27.3 SE 19 22 1014.6 - 0.0 - - - - - - -
03/10:30am 27.1 SE 19 21 1014.7 - 0.0 - - - - - - -
03/10:00am 27.0 SE 19 22 1014.7 - 0.0 - - - - - - -
03/09:30am 26.6 SE 21 22 1014.5 - 0.0 - - - - - - -
03/09:00am 26.5 SE 20 22 1014.4 - 2.0 - - - - - - -
03/08:30am 26.2 SE 21 24 1014.3 - 2.0 - - - - - - -
03/08:00am 26.0 SE 22 25 1014.0 - 2.0 - - - - - - -
03/07:30am 25.9 SE 21 24 1013.7 - 2.0 - - - - - - -
03/07:00am 25.4 SE 23 26 1013.4 - 2.0 - - - - - - -
03/06:30am 24.8 SE 23 26 1013.3 - 2.0 - - - - - - -
03/06:00am 24.8 SE 21 24 1013.0 - 2.0 - - - - - - -
03/05:30am 24.6 SE 22 25 1012.7 - 2.0 - - - - - - -
03/05:00am 24.3 ESE 21 24 1012.4 - 2.0 - - - - - - -
03/04:30am 24.2 SE 23 25 1012.3 - 2.0 - - - - - - -
03/04:15am 23.9 SE 18 23 1012.3 - 2.0 - - - - - - -
03/04:00am 23.2 SSE 18 23 1012.4 - 2.0 - - - - - - -
03/03:30am 24.5 ESE 19 22 1012.3 - 2.0 - - - - - - -
03/03:00am 24.7 SE 20 23 1012.3 - 2.0 - - - - - - -
03/02:30am 24.6 SE 21 24 1012.0 - 2.0 - - - - - - -
03/02:00am 24.8 SE 23 25 1012.3 - 2.0 - - - - - - -
03/01:30am 24.8 SE 23 26 1012.5 - 2.0 - - - - - - -
03/01:00am 24.8 SE 25 27 1012.9 - 2.0 - - - - - - -
03/12:30am 24.9 SE 27 30 1012.9 - 2.0 - - - - - - -
03/12:00am 24.8 SE 27 31 1013.1 - 2.0 - - - - - - -
 
Date/Time
EST
Temp

°C
Wind Pressure Rain
since 9am
mm
Weather Cloud Vis
km
Sea
Height
m
Swell
Dir
 
Speed
knots
Gust
knots
hPa Trend Height
m
Period
s
Dir
02/11:30pm 24.9 SE 30 33 1013.0 - 2.0 - - - - - - -
02/11:00pm 24.9 SE 28 31 1013.2 - 2.0 - - - - - - -
02/10:30pm 24.9 SE 27 30 1013.3 - 2.0 - - - - - - -
02/10:00pm 25.0 SE 27 32 1013.4 - 2.0 - - - - - - -
02/09:30pm 25.2 SE 28 30 1013.3 - 2.0 - - - - - - -
02/09:00pm 25.2 SE 25 29 1013.3 - 2.0 - - - - - - -
02/08:30pm 25.2 SE 25 29 1013.1 - 2.0 - - - - - - -
02/08:00pm 25.1 SE 25 29 1012.8 - 2.0 - - - - - - -
02/07:30pm 25.2 SE 27 30 1012.4 - 2.0 - - - - - - -
02/07:00pm 25.2 SE 24 28 1012.0 - 2.0 - - - - - - -
02/06:30pm 25.2 SE 26 30 1011.6 - 2.0 - - - - - - -

Other Formats:

Comma delimited format used in spreadsheet applications
http://www.bom.gov.au/fwo/IDQ60701/IDQ60701.94584.axf

JavaScript Object Notation format (JSON) in row-major order
http://www.bom.gov.au/fwo/IDQ60701/IDQ60701.94584.json